Radiance Of The Seas — C6SE7 — position and weather

sailwx.info

Track history (hours):
 
Tides and Currents Weather Stations Pressure Air Temp Water Temp Dewpoint Dewpoint Depression Visibility Wind Speed Wind Dir Waves Ship Positions

Radiance Of The Seas

Operator: Royal Caribbean Cruises Ltd

Last reported at 2019-Aug-24 06:44 UTC. Time now 2019-Aug-24 07:39 UTC.
Position N 50°10' W 125°22'.

Type: Passenger vessel. MMSI: 311319000.

Date/timePositionNaut miles runAvg speedWind from/ knotsBaromVisibWave heightAir tempDewpointWater temp
2019-Aug-24 06:44N 50°10' W 125°22'313.0
2019-Aug-24 06:30N 50°07' W 125°20'713.5
2019-Aug-24 06:00N 50°02' W 125°14'713.7
2019-Aug-24 05:30N 49°57' W 125°07'917.5
2019-Aug-24 05:00N 49°51' W 124°58'917.6
2019-Aug-24 04:30N 49°44' W 124°48'2217.6
2019-Aug-24 03:15N 49°28' W 124°26'517.9
2019-Aug-24 03:00N 49°25' W 124°20'918.0
2019-Aug-24 02:30N 49°23' W 124°07'917.4
2019-Aug-24 02:00N 49°21' W 123°54'917.7
2019-Aug-24 01:30N 49°20' W 123°40'917.3
2019-Aug-24 01:00N 49°20' W 123°27'3196.0
2019-Aug-24 01:00N 49°18' W 123°24'713.6 1010.010.8 16.3 15.0
2019-Aug-24 00:30N 49°19' W 123°14'510.9
2019-Aug-24 00:00N 49°18' W 123°06'1 1.1
2019-Aug-23 23:30N 49°17' W 123°07'0 0.0
2019-Aug-23 23:00N 49°17' W 123°07'0 0.0
2019-Aug-23 22:30N 49°17' W 123°07'0 0.0
2019-Aug-23 22:00N 49°17' W 123°07'0 0.0
2019-Aug-23 21:30N 49°17' W 123°07'0 0.0
2019-Aug-23 21:00N 49°17' W 123°07'0 0.0
2019-Aug-23 20:30N 49°17' W 123°07'0 0.0
2019-Aug-23 20:00N 49°17' W 123°07'0 0.0
2019-Aug-23 19:30N 49°17' W 123°07'0 0.0
2019-Aug-23 19:00N 49°17' W 123°07'0 0.0
2019-Aug-23 18:30N 49°17' W 123°07'0 0.0
2019-Aug-23 18:00N 49°17' W 123°07'0 0.0
2019-Aug-23 17:30N 49°17' W 123°07'0 0.0
2019-Aug-23 16:57N 49°17' W 123°07'0 0.0
2019-Aug-23 16:30N 49°17' W 123°07'0 0.0
2019-Aug-23 15:57N 49°17' W 123°07'0 0.0
2019-Aug-23 15:27N 49°17' W 123°07'0 0.0
2019-Aug-23 15:00N 49°17' W 123°07'0 0.0
2019-Aug-23 14:30N 49°17' W 123°07'0 0.1
2019-Aug-23 14:00N 49°17' W 123°07'1 2.9
2019-Aug-23 13:30N 49°19' W 123°08'611.3
2019-Aug-23 13:00N 49°19' W 123°16'612.1
2019-Aug-23 12:30N 49°18' W 123°26'612.3
2019-Aug-23 12:00N 49°19' W 123°35'612.5
2019-Aug-23 11:30N 49°20' W 123°44'612.8
2019-Aug-23 11:00N 49°21' W 123°54'713.0
2019-Aug-23 10:29N 49°23' W 124°04'612.8
2019-Aug-23 10:00N 49°24' W 124°13'713.4
2019-Aug-23 09:30N 49°26' W 124°23'1013.4
2019-Aug-23 08:46N 49°33' W 124°34'413.3
2019-Aug-23 08:26N 49°36' W 124°39'613.4
2019-Aug-23 08:00N 49°41' W 124°45'713.1
2019-Aug-23 07:30N 49°46' W 124°51'713.1
2019-Aug-23 07:01N 49°50' W 124°58'612.3
2019-Aug-23 06:30N 49°55' W 125°05'712.8
2019-Aug-23 05:59N 49°60' W 125°12'613.5
2019-Aug-23 05:30N 50°05' W 125°17'712.9
2019-Aug-23 04:57N 50°12' W 125°22'4716.0
2019-Aug-23 02:00N 50°30' W 126°30'4715.0 1015.0
2019-Aug-22 22:54N 50°52' W 127°35'817.3
2019-Aug-22 22:28N 50°57' W 127°44'613.0
2019-Aug-22 21:59N 51°00' W 127°52'714.6
2019-Aug-22 21:30N 51°04' W 128°02'714.1
2019-Aug-22 21:01N 51°08' W 128°11'714.1
2019-Aug-22 20:31N 51°13' W 128°19'714.8
2019-Aug-22 20:01N 51°17' W 128°29'815.4
2019-Aug-22 19:30N 51°22' W 128°38'815.6
2019-Aug-22 19:01N 51°27' W 128°49'815.1
2019-Aug-22 18:31N 51°31' W 128°59'714.2
2019-Aug-22 18:00N 51°35' W 129°08'714.4
2019-Aug-22 17:31N 51°39' W 129°17'714.6
2019-Aug-22 17:00N 51°44' W 129°27'714.8
2019-Aug-22 16:31N 51°48' W 129°36'11816.0
2019-Aug-22 09:08N 53°32' W 131°06'217.2
2019-Aug-22 09:01N 53°34' W 131°07'917.0
2019-Aug-22 08:29N 53°43' W 131°09'1117.0
2019-Aug-22 07:50N 53°54' W 131°13'616.8
2019-Aug-22 07:31N 53°59' W 131°12'816.7
2019-Aug-22 07:00N 54°07' W 131°06'816.3
2019-Aug-22 06:30N 54°15' W 131°03'916.3
2019-Aug-22 05:58N 54°23' W 131°11'238 8.2
2019-Aug-21 01:00N 57°48' W 134°48'   360 / 17999.010.8 15.0 13.0
2019-Aug-15 07:10N 58°19' W 136°12'319.1
2019-Aug-15 07:00N 58°20' W 136°06'917.4
2019-Aug-15 06:30N 58°19' W 135°50'1019.9
2019-Aug-15 06:00N 58°16' W 135°32'  
Track history (hours):
 
Tides and Currents Weather Stations Pressure Air Temp Water Temp Dewpoint Dewpoint Depression Visibility Wind Speed Wind Dir Waves Ship Positions

Radiance Of The Seas

Operator: Royal Caribbean Cruises Ltd

Last reported at 2019-Aug-24 06:44 UTC. Time now 2019-Aug-24 07:39 UTC.
Position N 50°10' W 125°22'.

Type: Passenger vessel. MMSI: 311319000.

Date/timePositionNaut miles runAvg speedWind from/ knotsBaromVisibWave heightAir tempDewpointWater temp
2019-Aug-24 06:44N 50°10' W 125°22'313.0
2019-Aug-24 06:30N 50°07' W 125°20'713.5
2019-Aug-24 06:00N 50°02' W 125°14'713.7
2019-Aug-24 05:30N 49°57' W 125°07'917.5
2019-Aug-24 05:00N 49°51' W 124°58'917.6
2019-Aug-24 04:30N 49°44' W 124°48'2217.6
2019-Aug-24 03:15N 49°28' W 124°26'517.9
2019-Aug-24 03:00N 49°25' W 124°20'918.0
2019-Aug-24 02:30N 49°23' W 124°07'917.4
2019-Aug-24 02:00N 49°21' W 123°54'917.7
2019-Aug-24 01:30N 49°20' W 123°40'917.3
2019-Aug-24 01:00N 49°20' W 123°27'3196.0
2019-Aug-24 01:00N 49°18' W 123°24'713.6 1010.010.8 16.3 15.0
2019-Aug-24 00:30N 49°19' W 123°14'510.9
2019-Aug-24 00:00N 49°18' W 123°06'1 1.1
2019-Aug-23 23:30N 49°17' W 123°07'0 0.0
2019-Aug-23 23:00N 49°17' W 123°07'0 0.0
2019-Aug-23 22:30N 49°17' W 123°07'0 0.0
2019-Aug-23 22:00N 49°17' W 123°07'0 0.0
2019-Aug-23 21:30N 49°17' W 123°07'0 0.0
2019-Aug-23 21:00N 49°17' W 123°07'0 0.0
2019-Aug-23 20:30N 49°17' W 123°07'0 0.0
2019-Aug-23 20:00N 49°17' W 123°07'0 0.0
2019-Aug-23 19:30N 49°17' W 123°07'0 0.0
2019-Aug-23 19:00N 49°17' W 123°07'0 0.0
2019-Aug-23 18:30N 49°17' W 123°07'0 0.0
2019-Aug-23 18:00N 49°17' W 123°07'0 0.0
2019-Aug-23 17:30N 49°17' W 123°07'0 0.0
2019-Aug-23 16:57N 49°17' W 123°07'0 0.0
2019-Aug-23 16:30N 49°17' W 123°07'0 0.0
2019-Aug-23 15:57N 49°17' W 123°07'0 0.0
2019-Aug-23 15:27N 49°17' W 123°07'0 0.0
2019-Aug-23 15:00N 49°17' W 123°07'0 0.0
2019-Aug-23 14:30N 49°17' W 123°07'0 0.1
2019-Aug-23 14:00N 49°17' W 123°07'1 2.9
2019-Aug-23 13:30N 49°19' W 123°08'611.3
2019-Aug-23 13:00N 49°19' W 123°16'612.1
2019-Aug-23 12:30N 49°18' W 123°26'612.3
2019-Aug-23 12:00N 49°19' W 123°35'612.5
2019-Aug-23 11:30N 49°20' W 123°44'612.8
2019-Aug-23 11:00N 49°21' W 123°54'713.0
2019-Aug-23 10:29N 49°23' W 124°04'612.8
2019-Aug-23 10:00N 49°24' W 124°13'713.4
2019-Aug-23 09:30N 49°26' W 124°23'1013.4
2019-Aug-23 08:46N 49°33' W 124°34'413.3
2019-Aug-23 08:26N 49°36' W 124°39'613.4
2019-Aug-23 08:00N 49°41' W 124°45'713.1
2019-Aug-23 07:30N 49°46' W 124°51'713.1
2019-Aug-23 07:01N 49°50' W 124°58'612.3
2019-Aug-23 06:30N 49°55' W 125°05'712.8
2019-Aug-23 05:59N 49°60' W 125°12'613.5
2019-Aug-23 05:30N 50°05' W 125°17'712.9
2019-Aug-23 04:57N 50°12' W 125°22'4716.0
2019-Aug-23 02:00N 50°30' W 126°30'4715.0 1015.0
2019-Aug-22 22:54N 50°52' W 127°35'817.3
2019-Aug-22 22:28N 50°57' W 127°44'613.0
2019-Aug-22 21:59N 51°00' W 127°52'714.6
2019-Aug-22 21:30N 51°04' W 128°02'714.1
2019-Aug-22 21:01N 51°08' W 128°11'714.1
2019-Aug-22 20:31N 51°13' W 128°19'714.8
2019-Aug-22 20:01N 51°17' W 128°29'815.4
2019-Aug-22 19:30N 51°22' W 128°38'815.6
2019-Aug-22 19:01N 51°27' W 128°49'815.1
2019-Aug-22 18:31N 51°31' W 128°59'714.2
2019-Aug-22 18:00N 51°35' W 129°08'714.4
2019-Aug-22 17:31N 51°39' W 129°17'714.6
2019-Aug-22 17:00N 51°44' W 129°27'714.8
2019-Aug-22 16:31N 51°48' W 129°36'11816.0
2019-Aug-22 09:08N 53°32' W 131°06'217.2
2019-Aug-22 09:01N 53°34' W 131°07'917.0
2019-Aug-22 08:29N 53°43' W 131°09'1117.0
2019-Aug-22 07:50N 53°54' W 131°13'616.8
2019-Aug-22 07:31N 53°59' W 131°12'816.7
2019-Aug-22 07:00N 54°07' W 131°06'816.3
2019-Aug-22 06:30N 54°15' W 131°03'916.3
2019-Aug-22 05:58N 54°23' W 131°11'238 8.2
2019-Aug-21 01:00N 57°48' W 134°48'   360 / 17999.010.8 15.0 13.0
2019-Aug-15 07:10N 58°19' W 136°12'319.1
2019-Aug-15 07:00N 58°20' W 136°06'917.4
2019-Aug-15 06:30N 58°19' W 135°50'1019.9
2019-Aug-15 06:00N 58°16' W 135°32'  

Dump ship's entire track history